Time;durP1;ratioP1;P1;durP2;ratioP2;P2;SDS_P1;SDS_P2;PMS_P1;PMS_P2;Temp;Humidity;BMP_temperature;BMP_pressure;BME280_temperature;BME280_humidity;BME280_pressure;Samples;Min_cycle;Max_cycle;Signal;HPM_P1;HPM_P2
2021/01/03 00:01:22;;;;;;;53.33;35.33;;;3.40;99.90;;;;;;5071380;28;20203;-87
2021/01/03 00:03:48;;;;;;;51.30;33.58;;;3.30;99.90;;;;;;5039418;28;20196;-88
2021/01/03 00:06:15;;;;;;;53.08;35.53;;;3.30;99.90;;;;;;5058384;28;20188;-88
2021/01/03 00:08:42;;;;;;;47.22;33.80;;;3.30;99.90;;;;;;5071343;28;20279;-87
2021/01/03 00:11:09;;;;;;;54.00;34.83;;;3.20;99.90;;;;;;5070945;28;20193;-88
2021/01/03 00:13:35;;;;;;;45.45;33.78;;;3.30;99.90;;;;;;5038836;28;20215;-88
2021/01/03 00:16:01;;;;;;;50.58;32.38;;;3.20;99.90;;;;;;5061930;28;20188;-88
2021/01/03 00:18:27;;;;;;;50.78;34.80;;;3.20;99.90;;;;;;5048447;28;20196;-88
2021/01/03 00:20:54;;;;;;;51.17;36.40;;;3.20;99.90;;;;;;5061643;28;20215;-88
2021/01/03 00:23:21;;;;;;;48.97;33.95;;;3.20;99.90;;;;;;5064152;28;20214;-87
2021/01/03 00:25:48;;;;;;;60.83;37.88;;;3.20;99.90;;;;;;5071951;28;20185;-88
2021/01/03 00:28:14;;;;;;;58.90;35.75;;;3.20;99.90;;;;;;5059896;28;20635;-88
2021/01/03 00:30:42;;;;;;;51.75;35.00;;;3.30;99.90;;;;;;5053747;28;20199;-87
2021/01/03 00:33:09;;;;;;;54.90;36.42;;;3.20;99.90;;;;;;5067051;28;20188;-87
2021/01/03 00:35:36;;;;;;;54.97;35.88;;;3.30;99.90;;;;;;5061504;28;20203;-88
2021/01/03 00:38:05;;;;;;;50.20;33.22;;;3.30;99.90;;;;;;5069114;28;20194;-88
2021/01/03 00:40:33;;;;;;;50.38;36.58;;;3.30;99.90;;;;;;5055044;28;20192;-88
2021/01/03 00:42:59;;;;;;;54.47;36.42;;;3.20;99.90;;;;;;5054033;28;20212;-88
2021/01/03 00:45:26;;;;;;;50.42;36.70;;;3.20;99.90;;;;;;5057343;28;20207;-88
2021/01/03 00:47:54;;;;;;;53.50;34.58;;;3.20;99.90;;;;;;5054629;28;20190;-88
2021/01/03 00:50:20;;;;;;;58.92;37.42;;;3.20;99.90;;;;;;5057704;28;20218;-87
2021/01/03 00:52:47;;;;;;;58.00;38.95;;;3.20;99.90;;;;;;5061344;28;20669;-88
2021/01/03 00:55:14;;;;;;;53.95;34.35;;;3.30;99.90;;;;;;5060476;28;20200;-88
2021/01/03 00:57:41;;;;;;;46.72;32.65;;;3.30;99.90;;;;;;5060103;28;20190;-88
2021/01/03 01:00:11;;;;;;;50.63;34.67;;;3.20;99.90;;;;;;5050083;28;20932;-88
2021/01/03 01:02:37;;;;;;;53.72;36.75;;;3.20;99.90;;;;;;5071040;28;20252;-88
2021/01/03 01:05:05;;;;;;;51.72;34.72;;;3.20;99.90;;;;;;5064617;28;20199;-88
2021/01/03 01:07:32;;;;;;;61.35;37.45;;;3.20;99.90;;;;;;5061730;28;20197;-88
2021/01/03 01:09:58;;;;;;;59.60;37.75;;;3.20;99.90;;;;;;5074984;28;20700;-88
2021/01/03 01:12:24;;;;;;;56.35;34.63;;;3.20;99.90;;;;;;5056123;28;20192;-88
2021/01/03 01:14:52;;;;;;;55.63;35.72;;;3.20;99.90;;;;;;5074601;28;20220;-87
2021/01/03 01:17:18;;;;;;;50.97;34.40;;;3.20;99.90;;;;;;5056881;28;20188;-88
2021/01/03 01:19:44;;;;;;;43.80;31.02;;;3.10;99.90;;;;;;5055326;28;20555;-88
2021/01/03 01:22:10;;;;;;;45.05;35.03;;;3.10;99.90;;;;;;5061943;28;20215;-88
2021/01/03 01:24:37;;;;;;;49.30;34.65;;;3.20;99.90;;;;;;5052852;28;20260;-87
2021/01/03 01:27:03;;;;;;;51.70;34.15;;;3.10;99.90;;;;;;5053812;28;20245;-87
2021/01/03 01:29:29;;;;;;;60.70;37.95;;;3.10;99.90;;;;;;5064877;28;20312;-88
2021/01/03 01:35:22;;;;;;;55.45;37.78;;;3.10;99.90;;;;;;5040610;28;20289;-88
2021/01/03 01:37:48;;;;;;;55.70;36.55;;;3.10;99.90;;;;;;5054323;28;20191;-88
2021/01/03 01:40:17;;;;;;;51.83;31.70;;;3.10;99.90;;;;;;5054363;28;20191;-88
2021/01/03 01:42:44;;;;;;;50.53;36.15;;;3.00;99.90;;;;;;5054104;28;20220;-88
2021/01/03 01:45:12;;;;;;;55.78;34.83;;;3.10;99.90;;;;;;5050515;28;20788;-88
2021/01/03 01:47:42;;;;;;;53.78;36.45;;;3.10;99.90;;;;;;5043184;28;20192;-88
2021/01/03 01:50:11;;;;;;;57.28;37.00;;;3.10;99.90;;;;;;5054188;28;20485;-88
2021/01/03 01:52:43;;;;;;;60.00;38.33;;;3.10;99.90;;;;;;5054086;28;20192;-89
2021/01/03 01:55:17;;;;;;;50.60;35.55;;;3.10;99.90;;;;;;5054295;28;20195;-88
2021/01/03 01:57:48;;;;;;;53.58;34.97;;;3.10;99.90;;;;;;5056595;28;20187;-88
2021/01/03 02:00:18;;;;;;;49.85;35.03;;;3.10;99.90;;;;;;5020569;28;20198;-87
2021/01/03 02:02:53;;;;;;;54.20;34.65;;;3.10;99.90;;;;;;5068356;28;20226;-88
2021/01/03 02:05:25;;;;;;;46.58;31.67;;;3.10;99.90;;;;;;5054191;28;20301;-88
2021/01/03 02:08:02;;;;;;;53.53;34.42;;;3.10;99.90;;;;;;5049476;28;20559;-88
2021/01/03 02:10:31;;;;;;;66.63;37.47;;;3.00;99.90;;;;;;5053364;28;20254;-87
2021/01/03 02:13:15;;;;;;;54.15;35.17;;;3.00;99.90;;;;;;5040809;28;20212;-87
2021/01/03 02:15:42;;;;;;;51.05;36.47;;;3.00;99.90;;;;;;5060242;28;20201;-87
2021/01/03 02:18:10;;;;;;;55.53;36.85;;;3.00;99.90;;;;;;5066485;28;20205;-88
2021/01/03 02:20:51;;;;;;;50.42;33.33;;;3.00;99.90;;;;;;5041013;28;20544;-88
2021/01/03 02:23:31;;;;;;;58.17;35.78;;;3.00;99.90;;;;;;5056211;28;20241;-88
2021/01/03 02:25:59;;;;;;;49.90;36.15;;;3.00;99.90;;;;;;5057590;28;20579;-88
2021/01/03 02:28:25;;;;;;;48.92;33.47;;;2.90;99.90;;;;;;5060117;28;20201;-87
2021/01/03 02:30:56;;;;;;;54.97;34.97;;;2.90;99.90;;;;;;5056251;28;20191;-88
2021/01/03 02:33:27;;;;;;;54.15;33.03;;;2.90;99.90;;;;;;5060241;28;20222;-88
2021/01/03 02:36:00;;;;;;;60.38;39.00;;;3.00;99.90;;;;;;5060188;28;20191;-88
2021/01/03 02:38:30;;;;;;;51.95;34.22;;;2.90;99.90;;;;;;5058550;28;20194;-88
2021/01/03 02:40:58;;;;;;;50.78;34.78;;;2.90;99.90;;;;;;5054647;28;20195;-88
2021/01/03 02:43:24;;;;;;;53.53;33.10;;;2.90;99.90;;;;;;5062993;28;20214;-88
2021/01/03 02:45:51;;;;;;;48.13;34.00;;;2.90;99.90;;;;;;5067268;28;20634;-87
2021/01/03 02:48:21;;;;;;;49.00;33.05;;;2.90;99.90;;;;;;5060187;28;20202;-88
2021/01/03 02:50:48;;;;;;;47.53;33.20;;;2.90;99.90;;;;;;5067313;28;20194;-88
2021/01/03 02:53:15;;;;;;;48.50;33.92;;;2.90;99.90;;;;;;5069092;28;20210;-88
2021/01/03 02:55:41;;;;;;;50.20;32.60;;;2.90;99.90;;;;;;5076679;28;20175;-88
2021/01/03 02:58:09;;;;;;;47.63;31.95;;;2.90;99.90;;;;;;5056095;28;20191;-88
2021/01/03 03:00:37;;;;;;;50.67;32.08;;;2.90;99.90;;;;;;5056784;28;20261;-88
2021/01/03 03:03:04;;;;;;;45.92;33.08;;;2.90;99.90;;;;;;5065159;28;20212;-88
2021/01/03 03:05:31;;;;;;;52.67;35.67;;;2.90;99.90;;;;;;5056503;28;20195;-87
2021/01/03 03:07:57;;;;;;;50.67;35.20;;;2.90;99.90;;;;;;5050136;28;20191;-87
2021/01/03 03:10:24;;;;;;;50.63;34.63;;;2.90;99.90;;;;;;5053661;28;20650;-88
2021/01/03 03:12:51;;;;;;;44.55;31.80;;;2.90;99.90;;;;;;5057640;28;20188;-88
2021/01/03 03:15:20;;;;;;;55.47;35.38;;;2.90;99.90;;;;;;5056454;28;20195;-87
2021/01/03 03:17:47;;;;;;;49.90;29.73;;;2.80;99.90;;;;;;5043767;28;20198;-88
2021/01/03 03:20:14;;;;;;;45.83;32.78;;;2.80;99.90;;;;;;5057098;28;20202;-88
2021/01/03 03:22:40;;;;;;;45.50;31.15;;;2.80;99.90;;;;;;5043808;28;20214;-88
2021/01/03 03:25:08;;;;;;;50.47;30.88;;;2.80;99.90;;;;;;5064019;28;20187;-88
2021/01/03 03:27:35;;;;;;;43.45;30.15;;;2.80;99.90;;;;;;5066720;28;20248;-88
2021/01/03 03:30:01;;;;;;;49.58;34.25;;;2.80;99.90;;;;;;5068340;28;20531;-88
2021/01/03 03:32:28;;;;;;;42.55;28.73;;;2.80;99.90;;;;;;5062202;28;20194;-88
2021/01/03 03:34:54;;;;;;;42.67;30.42;;;2.80;99.90;;;;;;5069822;28;20191;-88
2021/01/03 03:37:20;;;;;;;40.83;30.08;;;2.80;99.90;;;;;;5076129;28;20199;-88
2021/01/03 03:39:47;;;;;;;43.95;29.63;;;2.70;99.90;;;;;;5057357;28;20202;-87
2021/01/03 03:42:13;;;;;;;40.45;30.63;;;2.70;99.90;;;;;;5057778;28;20216;-88
2021/01/03 03:44:39;;;;;;;45.08;30.45;;;2.70;99.90;;;;;;5055936;28;20188;-88
2021/01/03 03:47:05;;;;;;;40.58;27.35;;;2.70;99.90;;;;;;5037286;28;20193;-88
2021/01/03 03:49:34;;;;;;;42.92;29.50;;;2.70;99.90;;;;;;5055798;28;20188;-87
2021/01/03 03:52:03;;;;;;;37.85;28.27;;;2.70;99.90;;;;;;5059557;28;20204;-87
2021/01/03 03:54:29;;;;;;;42.90;28.25;;;2.80;99.90;;;;;;5060198;28;20238;-88
2021/01/03 03:56:59;;;;;;;37.03;27.25;;;2.80;99.90;;;;;;5031891;28;20225;-88
2021/01/03 03:59:25;;;;;;;43.17;29.90;;;2.80;99.90;;;;;;5069104;28;20186;-88
2021/01/03 04:01:53;;;;;;;40.47;25.48;;;2.80;99.90;;;;;;5070847;28;20226;-88
2021/01/03 04:04:20;;;;;;;42.33;26.95;;;2.80;99.90;;;;;;5069588;28;20194;-87
2021/01/03 04:06:47;;;;;;;47.70;29.02;;;2.80;99.90;;;;;;5053333;28;20190;-88
2021/01/03 04:09:15;;;;;;;37.60;27.58;;;2.80;99.90;;;;;;5055983;28;20200;-88
2021/01/03 04:11:43;;;;;;;37.60;26.50;;;2.80;99.90;;;;;;5055691;28;20516;-88
2021/01/03 04:14:09;;;;;;;34.80;24.83;;;2.80;99.90;;;;;;5062876;28;20575;-88
2021/01/03 04:16:36;;;;;;;38.90;25.30;;;2.80;99.90;;;;;;5038055;28;20666;-87
2021/01/03 04:19:02;;;;;;;34.90;23.48;;;2.80;99.90;;;;;;5062345;28;20187;-87
2021/01/03 04:21:28;;;;;;;40.55;25.17;;;2.90;99.90;;;;;;5055026;28;20184;-87
2021/01/03 04:23:56;;;;;;;35.72;25.80;;;2.90;99.90;;;;;;5058000;28;20288;-87
2021/01/03 04:26:22;;;;;;;38.53;25.08;;;2.90;99.90;;;;;;5055252;28;20190;-87
2021/01/03 04:28:48;;;;;;;37.90;26.73;;;2.90;99.90;;;;;;5048965;28;20196;-88
2021/01/03 04:31:18;;;;;;;36.72;26.50;;;2.90;99.90;;;;;;5046105;28;20191;-88
2021/01/03 04:33:44;;;;;;;32.65;24.92;;;2.90;99.90;;;;;;5052729;28;20220;-87
2021/01/03 04:36:13;;;;;;;37.35;25.55;;;2.90;99.90;;;;;;5060973;28;20196;-88
2021/01/03 04:38:39;;;;;;;44.65;28.70;;;2.90;99.90;;;;;;5055520;28;20221;-88
2021/01/03 04:41:07;;;;;;;38.15;25.65;;;2.90;99.90;;;;;;5062614;28;20191;-88
2021/01/03 04:43:33;;;;;;;40.15;28.20;;;2.90;99.90;;;;;;5065038;28;20529;-87
2021/01/03 04:46:03;;;;;;;39.72;26.20;;;2.90;99.90;;;;;;5064356;28;20850;-88
2021/01/03 04:48:33;;;;;;;40.60;26.55;;;2.90;99.90;;;;;;5058051;28;20701;-88
2021/01/03 04:51:25;;;;;;;41.72;27.48;;;2.90;99.90;;;;;;5071681;28;20197;-88
2021/01/03 04:53:58;;;;;;;40.13;26.23;;;2.90;99.90;;;;;;5054177;28;20646;-88
2021/01/03 04:56:34;;;;;;;40.10;24.55;;;2.80;99.90;;;;;;5078183;28;20248;-87
2021/01/03 04:59:08;;;;;;;38.55;24.90;;;2.90;99.90;;;;;;5059639;28;20197;-88
2021/01/03 05:02:06;;;;;;;34.45;26.52;;;2.90;99.90;;;;;;5084532;28;20200;-88
2021/01/03 05:04:44;;;;;;;35.00;25.30;;;2.90;99.90;;;;;;5030592;28;20201;-88
2021/01/03 05:07:14;;;;;;;39.63;27.15;;;2.90;99.90;;;;;;5044913;28;20191;-88
2021/01/03 05:09:41;;;;;;;38.47;25.05;;;2.90;99.90;;;;;;5060679;28;20195;-88
2021/01/03 05:12:16;;;;;;;32.58;24.65;;;2.90;99.90;;;;;;5054945;28;20207;-88
2021/01/03 05:14:48;;;;;;;35.33;26.17;;;2.90;99.90;;;;;;5033089;28;20212;-88
2021/01/03 05:17:14;;;;;;;36.70;27.35;;;2.90;99.90;;;;;;5036989;28;20191;-88
2021/01/03 05:19:41;;;;;;;33.78;25.90;;;2.90;99.90;;;;;;5066639;28;20199;-87
2021/01/03 05:22:07;;;;;;;36.10;23.00;;;2.90;99.90;;;;;;5074370;28;20223;-88
2021/01/03 05:24:43;;;;;;;35.83;25.13;;;2.90;99.90;;;;;;5042567;28;20206;-88
2021/01/03 05:27:16;;;;;;;34.55;24.30;;;2.90;99.90;;;;;;5070257;28;20244;-88
2021/01/03 05:29:44;;;;;;;38.00;22.88;;;2.90;99.90;;;;;;5050619;28;20199;-88
2021/01/03 05:32:11;;;;;;;29.35;21.55;;;2.90;99.90;;;;;;5053724;28;20194;-88
2021/01/03 05:34:39;;;;;;;30.95;21.55;;;2.90;99.90;;;;;;5065504;28;20211;-88
2021/01/03 05:37:11;;;;;;;33.42;22.70;;;2.90;99.90;;;;;;5037268;28;20184;-87
2021/01/03 05:39:38;;;;;;;29.90;20.35;;;2.90;99.90;;;;;;5069380;28;20642;-88
2021/01/03 05:42:24;;;;;;;32.42;20.58;;;2.90;99.90;;;;;;5063495;28;20216;-88
2021/01/03 05:44:58;;;;;;;28.88;19.83;;;2.90;99.90;;;;;;5016502;28;20192;-88
2021/01/03 05:47:29;;;;;;;25.35;18.80;;;2.90;99.90;;;;;;5048300;28;20237;-87
2021/01/03 05:50:26;;;;;;;28.70;18.80;;;3.00;99.90;;;;;;5053799;28;20191;-88
2021/01/03 05:52:54;;;;;;;21.58;16.33;;;2.90;99.90;;;;;;5058384;28;20190;-87
2021/01/03 05:55:26;;;;;;;26.67;17.88;;;3.00;99.90;;;;;;5054410;28;20189;-88
2021/01/03 05:58:14;;;;;;;22.08;17.50;;;3.00;99.90;;;;;;5060247;28;20198;-89
2021/01/03 06:00:40;;;;;;;20.55;15.18;;;3.00;99.90;;;;;;5048703;28;20256;-90
2021/01/03 06:03:20;;;;;;;22.17;13.93;;;2.90;99.90;;;;;;5068561;28;20243;-90
2021/01/03 06:05:48;;;;;;;20.60;15.27;;;2.90;99.90;;;;;;5063431;28;20241;-90
2021/01/03 06:08:19;;;;;;;23.20;15.40;;;2.90;99.90;;;;;;5051833;28;20187;-90
2021/01/03 06:10:46;;;;;;;21.95;14.63;;;3.00;99.90;;;;;;5068797;28;20180;-89
2021/01/03 06:13:15;;;;;;;18.17;14.60;;;2.90;99.90;;;;;;5068646;28;20210;-90
2021/01/03 06:15:45;;;;;;;19.90;14.57;;;2.90;99.90;;;;;;5071031;28;20191;-90
2021/01/03 06:18:17;;;;;;;19.10;13.55;;;3.00;99.90;;;;;;5039658;28;20191;-90
2021/01/03 06:20:44;;;;;;;16.23;10.45;;;3.00;99.90;;;;;;5068419;28;20198;-89
2021/01/03 06:23:12;;;;;;;16.05;12.40;;;3.00;99.90;;;;;;5050600;28;20215;-91
2021/01/03 06:25:42;;;;;;;18.58;13.48;;;3.00;99.90;;;;;;5036983;28;20195;-90
2021/01/03 06:28:14;;;;;;;19.75;13.52;;;3.00;99.90;;;;;;5039296;28;20659;-89
2021/01/03 06:30:43;;;;;;;15.57;11.93;;;3.00;99.90;;;;;;5058753;28;20197;-89
2021/01/03 06:33:39;;;;;;;19.00;12.80;;;3.00;99.90;;;;;;5059249;28;20198;-90
2021/01/03 06:36:11;;;;;;;18.05;11.20;;;3.00;99.90;;;;;;5064278;28;20550;-89
2021/01/03 06:39:04;;;;;;;14.23;10.70;;;3.00;99.90;;;;;;5056871;28;20639;-89
2021/01/03 06:41:45;;;;;;;15.55;11.95;;;3.00;99.90;;;;;;5043311;28;20204;-90
2021/01/03 06:44:47;;;;;;;16.98;13.20;;;3.00;99.90;;;;;;5036055;28;20240;-90
2021/01/03 06:47:56;;;;;;;14.98;10.30;;;3.00;99.90;;;;;;5054053;28;20245;-89
2021/01/03 06:50:55;;;;;;;15.40;10.40;;;3.00;99.90;;;;;;5056493;28;20191;-89
2021/01/03 06:53:59;;;;;;;14.48;11.38;;;3.00;99.90;;;;;;5053787;28;20215;-90
2021/01/03 06:56:53;;;;;;;16.98;12.07;;;3.00;99.90;;;;;;5034539;28;20200;-90
2021/01/03 06:59:58;;;;;;;16.75;11.43;;;3.00;99.90;;;;;;5032805;28;20935;-89
2021/01/03 07:02:24;;;;;;;12.20;9.77;;;3.00;99.90;;;;;;5016754;28;20209;-90
2021/01/03 07:04:51;;;;;;;14.40;10.05;;;3.10;99.90;;;;;;5035723;28;20226;-89
2021/01/03 07:07:22;;;;;;;14.82;10.70;;;3.10;99.90;;;;;;5036504;28;20188;-90
2021/01/03 07:09:59;;;;;;;16.23;9.90;;;3.10;99.90;;;;;;5062492;28;20190;-90
2021/01/03 07:12:38;;;;;;;12.88;9.95;;;3.10;99.90;;;;;;5056581;28;20199;-90
2021/01/03 07:15:12;;;;;;;14.30;9.88;;;3.10;99.90;;;;;;5035529;28;20524;-90
2021/01/03 07:18:15;;;;;;;13.07;11.00;;;3.10;99.90;;;;;;5048449;28;20184;-89
2021/01/03 07:20:52;;;;;;;11.38;10.15;;;3.10;99.90;;;;;;5053087;28;20193;-88
2021/01/03 07:23:26;;;;;;;12.10;9.95;;;3.10;99.90;;;;;;5051144;28;20267;-90
2021/01/03 07:26:02;;;;;;;13.77;11.10;;;3.10;99.90;;;;;;5045513;28;20259;-90
2021/01/03 07:28:31;;;;;;;13.90;8.80;;;3.10;99.90;;;;;;5044598;28;20201;-90
2021/01/03 07:31:11;;;;;;;12.63;8.90;;;3.10;99.90;;;;;;5052092;28;20187;-90
2021/01/03 07:33:50;;;;;;;13.57;8.90;;;3.10;99.90;;;;;;5048396;28;20195;-90
2021/01/03 07:36:40;;;;;;;14.43;10.77;;;3.10;99.90;;;;;;5065700;28;20194;-90
2021/01/03 07:39:19;;;;;;;11.55;8.95;;;3.10;99.90;;;;;;5057681;28;20194;-91
2021/01/03 07:41:46;;;;;;;12.60;9.05;;;3.10;99.90;;;;;;5058746;28;20187;-90
2021/01/03 07:44:28;;;;;;;10.90;9.80;;;3.10;99.90;;;;;;5056750;28;20206;-91
2021/01/03 07:46:58;;;;;;;11.15;8.98;;;3.10;99.90;;;;;;5067262;28;20207;-90
2021/01/03 07:49:42;;;;;;;11.82;8.25;;;3.10;99.90;;;;;;5062021;28;20613;-90
2021/01/03 07:52:40;;;;;;;11.90;9.77;;;3.00;99.90;;;;;;5080327;28;20195;-90
2021/01/03 07:55:14;;;;;;;10.27;9.02;;;3.10;99.90;;;;;;5050997;28;20201;-90
2021/01/03 07:57:40;;;;;;;10.20;8.73;;;3.10;99.90;;;;;;5062672;28;20190;-90
2021/01/03 08:00:08;;;;;;;10.95;9.07;;;3.10;99.90;;;;;;5056326;28;20183;-90
2021/01/03 08:02:37;;;;;;;15.07;10.30;;;3.10;99.90;;;;;;5056367;28;20275;-90
2021/01/03 08:05:05;;;;;;;13.30;9.95;;;3.10;99.90;;;;;;5054998;28;20199;-89
2021/01/03 08:07:31;;;;;;;11.73;9.20;;;3.10;99.90;;;;;;5054950;28;20199;-90
2021/01/03 08:10:09;;;;;;;13.10;9.15;;;3.10;99.90;;;;;;5056815;28;20189;-90
2021/01/03 08:12:40;;;;;;;9.95;8.55;;;3.10;99.90;;;;;;5069008;28;20230;-90
2021/01/03 08:15:10;;;;;;;10.32;7.82;;;3.20;99.90;;;;;;5056725;28;20666;-89
2021/01/03 08:17:41;;;;;;;8.55;7.55;;;3.20;99.90;;;;;;5056233;28;20192;-89
2021/01/03 08:20:10;;;;;;;9.63;7.93;;;3.20;99.90;;;;;;5064088;28;20585;-90
2021/01/03 08:22:37;;;;;;;11.73;8.95;;;3.20;99.90;;;;;;5054698;28;20300;-88
2021/01/03 08:25:05;;;;;;;8.90;8.00;;;3.20;99.90;;;;;;4979302;28;20216;-87
2021/01/03 08:27:43;;;;;;;11.02;8.20;;;3.20;99.90;;;;;;5047173;28;20195;-91
2021/01/03 08:30:14;;;;;;;7.93;6.35;;;3.20;99.90;;;;;;5061320;28;20219;-90
2021/01/03 08:32:42;;;;;;;9.25;7.88;;;3.20;99.90;;;;;;5037331;28;20207;-90
2021/01/03 08:35:12;;;;;;;8.93;7.05;;;3.20;99.90;;;;;;5057444;28;20187;-90
2021/01/03 08:37:41;;;;;;;10.05;8.25;;;3.20;99.90;;;;;;5052476;28;20192;-90
2021/01/03 08:40:20;;;;;;;9.63;7.55;;;3.20;99.90;;;;;;5044093;28;20180;-90
2021/01/03 08:42:53;;;;;;;9.93;7.80;;;3.30;99.90;;;;;;5037698;28;20223;-90
2021/01/03 08:45:24;;;;;;;11.93;7.57;;;3.30;99.90;;;;;;5044064;28;20187;-90
2021/01/03 08:47:52;;;;;;;9.85;7.55;;;3.30;99.90;;;;;;5038940;28;20629;-90
2021/01/03 08:50:23;;;;;;;11.60;7.00;;;3.30;99.90;;;;;;5052655;28;20191;-91
2021/01/03 08:52:57;;;;;;;6.85;5.70;;;3.30;99.90;;;;;;5038202;28;20644;-90
2021/01/03 08:55:25;;;;;;;9.63;6.68;;;3.20;99.90;;;;;;5019844;28;20194;-89
2021/01/03 08:57:58;;;;;;;7.85;5.72;;;3.20;99.90;;;;;;5036770;28;20191;-91
2021/01/03 09:00:26;;;;;;;10.05;6.40;;;3.20;99.90;;;;;;5052974;28;20188;-90
2021/01/03 09:02:59;;;;;;;9.50;7.30;;;3.20;99.90;;;;;;5018825;28;20631;-90
2021/01/03 09:05:29;;;;;;;10.45;5.85;;;3.30;99.90;;;;;;5036740;28;20184;-90
2021/01/03 09:07:57;;;;;;;8.10;6.70;;;3.30;99.90;;;;;;5038587;28;20188;-91
2021/01/03 09:10:31;;;;;;;7.97;5.72;;;3.30;99.90;;;;;;5054487;28;20200;-91
2021/01/03 09:13:07;;;;;;;9.02;6.25;;;3.30;99.90;;;;;;5038515;28;20214;-90
2021/01/03 09:15:39;;;;;;;10.18;6.82;;;3.30;99.90;;;;;;5056126;28;20187;-91
2021/01/03 09:18:27;;;;;;;12.35;8.18;;;3.30;99.90;;;;;;5055818;28;20188;-90
2021/01/03 09:20:56;;;;;;;7.43;5.55;;;3.20;99.90;;;;;;5055732;28;20717;-89
2021/01/03 09:23:26;;;;;;;9.70;6.75;;;3.30;99.90;;;;;;5056004;28;20235;-89
2021/01/03 09:25:54;;;;;;;7.20;5.53;;;3.30;99.90;;;;;;5070822;28;20265;-90
2021/01/03 09:28:25;;;;;;;10.82;6.40;;;3.30;99.90;;;;;;5071257;28;20196;-89
2021/01/03 09:31:07;;;;;;;10.20;7.10;;;3.30;99.90;;;;;;5063432;28;20623;-90
2021/01/03 09:33:35;;;;;;;6.90;5.60;;;3.30;99.90;;;;;;5038550;28;20306;-90
2021/01/03 09:36:06;;;;;;;8.63;6.00;;;3.30;99.90;;;;;;5055440;28;20202;-89
2021/01/03 09:39:09;;;;;;;8.00;5.85;;;3.40;99.90;;;;;;5037690;28;20247;-90
2021/01/03 09:41:46;;;;;;;5.70;4.93;;;3.40;99.90;;;;;;5057599;28;20194;-88
2021/01/03 09:44:23;;;;;;;8.40;5.97;;;3.30;99.90;;;;;;5073966;28;20223;-89
2021/01/03 09:46:57;;;;;;;8.15;6.15;;;3.30;99.90;;;;;;5057417;28;20188;-89
2021/01/03 09:49:28;;;;;;;8.50;6.10;;;3.40;99.90;;;;;;5055266;28;20192;-89
2021/01/03 09:52:03;;;;;;;6.90;5.45;;;3.40;99.90;;;;;;5055669;28;20198;-89
2021/01/03 09:54:39;;;;;;;10.15;6.13;;;3.40;99.90;;;;;;5055334;28;20196;-89
2021/01/03 09:57:06;;;;;;;8.63;6.55;;;3.40;99.90;;;;;;5059893;28;20188;-89
2021/01/03 09:59:32;;;;;;;8.00;6.47;;;3.40;99.90;;;;;;5060455;28;20196;-90
2021/01/03 10:02:15;;;;;;;7.63;6.28;;;3.40;99.90;;;;;;5040095;28;20197;-89
2021/01/03 10:04:44;;;;;;;9.05;6.10;;;3.50;99.90;;;;;;5055441;28;20191;-90
2021/01/03 10:07:14;;;;;;;7.30;5.30;;;3.50;99.90;;;;;;5057089;28;20192;-90
2021/01/03 10:09:41;;;;;;;10.40;6.88;;;3.40;99.90;;;;;;5047127;28;20214;-90
2021/01/03 10:12:30;;;;;;;8.45;6.00;;;3.50;99.90;;;;;;5073091;28;20533;-89
2021/01/03 10:15:04;;;;;;;11.07;4.93;;;3.50;99.90;;;;;;5054072;28;20227;-89
2021/01/03 10:17:31;;;;;;;8.35;6.40;;;3.50;99.90;;;;;;5056515;28;20195;-90
2021/01/03 10:19:58;;;;;;;7.18;5.63;;;3.50;99.90;;;;;;5054971;28;20192;-90
2021/01/03 10:22:27;;;;;;;10.45;5.25;;;3.50;99.90;;;;;;5037019;28;20215;-89
2021/01/03 10:24:58;;;;;;;8.60;4.70;;;3.50;99.90;;;;;;5037674;28;20196;-89
2021/01/03 10:27:25;;;;;;;9.10;5.25;;;3.50;99.90;;;;;;5055094;28;20191;-90
2021/01/03 10:29:52;;;;;;;8.15;4.80;;;3.60;99.90;;;;;;5061248;28;20234;-90
2021/01/03 10:32:21;;;;;;;6.90;4.97;;;3.60;99.90;;;;;;5042179;28;20192;-89
2021/01/03 10:34:47;;;;;;;8.75;5.75;;;3.60;99.90;;;;;;5040856;28;20188;-89
2021/01/03 10:37:14;;;;;;;6.18;4.47;;;3.60;99.90;;;;;;5057958;28;20199;-89
2021/01/03 10:39:40;;;;;;;7.80;5.53;;;3.60;99.90;;;;;;5054868;28;20270;-92
2021/01/03 10:42:09;;;;;;;6.70;5.20;;;3.60;99.90;;;;;;5060264;28;20229;-90
2021/01/03 10:44:35;;;;;;;8.30;5.93;;;3.70;99.90;;;;;;5055374;28;20196;-89
2021/01/03 10:47:01;;;;;;;6.80;5.32;;;3.70;99.90;;;;;;5053962;28;20192;-89
2021/01/03 10:49:29;;;;;;;6.13;5.40;;;3.70;99.90;;;;;;5054908;28;20647;-90
2021/01/03 10:51:56;;;;;;;6.60;5.90;;;3.70;99.90;;;;;;5056760;28;20624;-91
2021/01/03 10:54:27;;;;;;;8.55;4.88;;;3.70;99.90;;;;;;5071647;28;20243;-91
2021/01/03 10:56:55;;;;;;;5.20;4.00;;;3.70;99.90;;;;;;5056468;28;20199;-90
2021/01/03 10:59:23;;;;;;;5.45;4.15;;;3.70;99.90;;;;;;5058651;28;20185;-91
2021/01/03 11:01:50;;;;;;;6.43;5.15;;;3.70;99.90;;;;;;5054463;28;20189;-91
2021/01/03 11:04:18;;;;;;;7.90;5.10;;;3.80;99.90;;;;;;5063317;28;20200;-91
2021/01/03 11:06:46;;;;;;;6.93;4.55;;;3.80;99.90;;;;;;5081039;28;20188;-90
2021/01/03 11:09:17;;;;;;;8.27;4.75;;;3.80;99.90;;;;;;5062590;28;20207;-90
2021/01/03 11:11:46;;;;;;;6.93;5.00;;;3.80;99.90;;;;;;5062610;28;20667;-91
2021/01/03 11:14:13;;;;;;;8.15;5.18;;;3.80;99.90;;;;;;5040978;28;20281;-90
2021/01/03 11:16:41;;;;;;;5.68;4.25;;;3.80;99.90;;;;;;5076334;28;20188;-89
2021/01/03 11:19:10;;;;;;;7.13;4.63;;;3.80;99.90;;;;;;5062042;28;20184;-90
2021/01/03 11:21:37;;;;;;;7.68;5.30;;;3.80;99.90;;;;;;5061992;28;20196;-91
2021/01/03 11:24:05;;;;;;;6.25;4.72;;;3.80;99.90;;;;;;5050117;28;20225;-90
2021/01/03 11:26:33;;;;;;;6.90;5.10;;;3.80;99.90;;;;;;5058876;28;20192;-91
2021/01/03 11:29:01;;;;;;;6.65;4.95;;;3.80;99.90;;;;;;5058653;28;20208;-92
2021/01/03 11:31:35;;;;;;;6.70;4.32;;;3.80;99.90;;;;;;5058812;28;20200;-91
2021/01/03 11:34:02;;;;;;;6.28;4.90;;;3.80;99.90;;;;;;5061635;28;20184;-90
2021/01/03 11:36:31;;;;;;;5.57;4.38;;;3.80;99.90;;;;;;5057308;28;20223;-89
2021/01/03 11:38:59;;;;;;;8.20;5.97;;;3.80;99.90;;;;;;5063134;28;20192;-90
2021/01/03 11:41:25;;;;;;;8.13;5.30;;;3.80;99.90;;;;;;5051720;28;20184;-89
2021/01/03 11:43:51;;;;;;;6.43;4.65;;;3.80;99.90;;;;;;5057897;28;20228;-90
2021/01/03 11:46:19;;;;;;;7.95;5.05;;;3.80;99.90;;;;;;5040336;28;20181;-89
2021/01/03 11:48:46;;;;;;;5.57;4.43;;;3.90;99.90;;;;;;5057557;28;20242;-89
2021/01/03 11:51:14;;;;;;;8.45;5.50;;;3.80;99.90;;;;;;5039663;28;20188;-90
2021/01/03 11:53:48;;;;;;;7.22;5.10;;;3.90;99.90;;;;;;5046285;28;20226;-90
2021/01/03 11:56:18;;;;;;;5.78;4.68;;;4.00;99.90;;;;;;5057350;28;20180;-90
2021/01/03 11:58:45;;;;;;;6.43;5.00;;;4.00;99.90;;;;;;5057355;28;20188;-90
2021/01/03 12:01:11;;;;;;;6.55;5.15;;;4.00;99.90;;;;;;5040080;28;20184;-91
2021/01/03 12:03:38;;;;;;;5.70;4.90;;;4.00;99.90;;;;;;5057541;28;20215;-91
2021/01/03 12:06:05;;;;;;;8.13;5.90;;;4.00;99.90;;;;;;5057428;28;20188;-90
2021/01/03 12:08:31;;;;;;;7.65;5.65;;;4.10;99.90;;;;;;5056116;28;20249;-91
2021/01/03 12:10:58;;;;;;;6.75;5.28;;;4.10;99.90;;;;;;5057269;28;20734;-91
2021/01/03 12:13:24;;;;;;;6.40;4.97;;;4.10;99.90;;;;;;5057518;28;20243;-92
2021/01/03 12:15:51;;;;;;;6.65;5.85;;;4.20;99.90;;;;;;5057157;28;20181;-92
2021/01/03 12:18:17;;;;;;;8.93;6.43;;;4.20;99.90;;;;;;5057310;28;20218;-92
2021/01/03 12:20:44;;;;;;;8.07;6.00;;;4.20;99.90;;;;;;5039586;28;20188;-92
2021/01/03 12:23:10;;;;;;;6.75;5.50;;;4.20;99.90;;;;;;5057144;28;20663;-91
2021/01/03 12:25:37;;;;;;;8.23;6.85;;;4.20;99.90;;;;;;5057361;28;20188;-90
2021/01/03 12:28:03;;;;;;;7.82;5.57;;;4.30;99.90;;;;;;5052306;28;20192;-90
2021/01/03 12:30:29;;;;;;;9.57;6.85;;;4.30;99.90;;;;;;5040187;28;20185;-91
2021/01/03 12:32:55;;;;;;;8.50;6.53;;;4.30;99.90;;;;;;5057415;28;20188;-91
2021/01/03 12:35:22;;;;;;;8.65;6.25;;;4.30;99.90;;;;;;5057718;28;20176;-91
2021/01/03 12:37:49;;;;;;;6.85;5.68;;;4.20;99.90;;;;;;5039461;28;20214;-91
2021/01/03 12:40:16;;;;;;;10.73;7.60;;;4.20;99.90;;;;;;5057071;28;20191;-90
2021/01/03 12:42:42;;;;;;;8.38;6.80;;;4.20;99.90;;;;;;5053992;28;20208;-90
2021/01/03 12:45:11;;;;;;;6.18;4.93;;;4.20;99.90;;;;;;5056952;28;20180;-88
2021/01/03 12:47:38;;;;;;;7.72;6.22;;;4.30;99.90;;;;;;5056823;28;20196;-90
2021/01/03 12:50:06;;;;;;;9.70;6.97;;;4.20;99.90;;;;;;5071779;28;20184;-90
2021/01/03 12:52:32;;;;;;;9.63;7.30;;;4.20;99.90;;;;;;5038873;28;20192;-89
2021/01/03 12:54:59;;;;;;;11.48;6.82;;;4.20;99.90;;;;;;5038893;28;20667;-90
2021/01/03 12:57:26;;;;;;;11.73;7.60;;;4.20;99.90;;;;;;5057055;28;20184;-90
2021/01/03 12:59:52;;;;;;;12.18;8.75;;;4.20;99.90;;;;;;5019958;28;20651;-92
2021/01/03 13:02:18;;;;;;;9.32;7.05;;;4.10;99.90;;;;;;5044687;28;20191;-90
2021/01/03 13:04:45;;;;;;;9.20;7.68;;;4.10;99.90;;;;;;5066584;28;20184;-90
2021/01/03 13:07:11;;;;;;;11.23;8.93;;;4.10;99.90;;;;;;5039806;28;20192;-92